sensor_id;sensor_type;location;lat;lon;timestamp;pressure;altitude;pressure_sealevel;temperature;humidity
76331;BME280;65148;51.912;15.570;2023-03-17T00:12:44;102025.46;;;3.72;59.87
76331;BME280;65148;51.912;15.570;2023-03-17T00:27:46;102017.80;;;3.69;59.93
76331;BME280;65148;51.912;15.570;2023-03-17T00:43:05;101997.14;;;3.43;60.57
76331;BME280;65148;51.912;15.570;2023-03-17T00:58:16;101991.13;;;3.28;61.18
76331;BME280;65148;51.912;15.570;2023-03-17T01:13:19;101962.97;;;3.04;62.56
76331;BME280;65148;51.912;15.570;2023-03-17T01:28:48;101938.75;;;2.65;63.81
76331;BME280;65148;51.912;15.570;2023-03-17T01:43:49;101923.20;;;2.40;65.06
76331;BME280;65148;51.912;15.570;2023-03-17T01:58:53;101917.81;;;2.27;65.35
76331;BME280;65148;51.912;15.570;2023-03-17T02:13:55;101905.13;;;2.08;66.75
76331;BME280;65148;51.912;15.570;2023-03-17T02:29:14;101898.85;;;1.81;68.86
76331;BME280;65148;51.912;15.570;2023-03-17T02:44:16;101898.85;;;1.81;69.82
76331;BME280;65148;51.912;15.570;2023-03-17T02:59:17;101859.98;;;1.70;70.11
76331;BME280;65148;51.912;15.570;2023-03-17T03:14:18;101867.78;;;1.59;70.37
76331;BME280;65148;51.912;15.570;2023-03-17T03:29:41;101877.99;;;1.42;72.04
76331;BME280;65148;51.912;15.570;2023-03-17T03:44:42;101865.47;;;1.49;72.71
76331;BME280;65148;51.912;15.570;2023-03-17T03:59:43;101848.48;;;1.42;73.71
76331;BME280;65148;51.912;15.570;2023-03-17T04:14:44;101822.55;;;1.56;74.16
76331;BME280;65148;51.912;15.570;2023-03-17T04:30:12;101831.23;;;1.58;73.96
76331;BME280;65148;51.912;15.570;2023-03-17T04:45:16;101824.84;;;1.59;74.75
76331;BME280;65148;51.912;15.570;2023-03-17T05:00:17;101822.74;;;1.54;74.45
76331;BME280;65148;51.912;15.570;2023-03-17T05:15:20;101828.53;;;1.51;74.46
76331;BME280;65148;51.912;15.570;2023-03-17T05:30:35;101832.64;;;1.54;75.54
76331;BME280;65148;51.912;15.570;2023-03-17T05:45:37;101834.61;;;1.79;74.72
76331;BME280;65148;51.912;15.570;2023-03-17T06:00:40;101836.98;;;2.22;75.13
76331;BME280;65148;51.912;15.570;2023-03-17T06:15:47;101815.48;;;2.88;71.21
76331;BME280;65148;51.912;15.570;2023-03-17T06:31:03;101808.14;;;3.28;66.99
76331;BME280;65148;51.912;15.570;2023-03-17T06:46:04;101791.31;;;3.84;67.01
76331;BME280;65148;51.912;15.570;2023-03-17T07:01:08;101829.67;;;4.17;64.90
76331;BME280;65148;51.912;15.570;2023-03-17T07:16:14;101827.93;;;4.79;63.12
76331;BME280;65148;51.912;15.570;2023-03-17T07:31:35;101805.18;;;5.11;61.19
76331;BME280;65148;51.912;15.570;2023-03-17T07:46:38;101804.11;;;5.67;58.42
76331;BME280;65148;51.912;15.570;2023-03-17T08:01:39;101794.91;;;6.05;56.40
76331;BME280;65148;51.912;15.570;2023-03-17T08:16:40;101799.25;;;6.59;56.35
76331;BME280;65148;51.912;15.570;2023-03-17T08:31:57;101825.23;;;6.83;52.72
76331;BME280;65148;51.912;15.570;2023-03-17T08:46:58;101747.93;;;7.96;52.64
76331;BME280;65148;51.912;15.570;2023-03-17T09:02:00;101723.78;;;8.28;48.65
76331;BME280;65148;51.912;15.570;2023-03-17T09:17:02;101726.27;;;8.46;49.55
76331;BME280;65148;51.912;15.570;2023-03-17T09:32:22;101736.29;;;8.62;48.87
76331;BME280;65148;51.912;15.570;2023-03-17T10:02:37;101661.42;;;9.91;42.90
76331;BME280;65148;51.912;15.570;2023-03-17T10:18:11;101669.49;;;10.49;40.01
76331;BME280;65148;51.912;15.570;2023-03-17T10:33:14;101646.52;;;11.85;39.78
76331;BME280;65148;51.912;15.570;2023-03-17T10:48:17;101623.98;;;12.74;35.56
76331;BME280;65148;51.912;15.570;2023-03-17T11:03:43;101618.09;;;12.27;34.52
76331;BME280;65148;51.912;15.570;2023-03-17T11:18:46;101607.94;;;13.56;34.81
76331;BME280;65148;51.912;15.570;2023-03-17T11:34:03;101583.02;;;13.92;34.96
76331;BME280;65148;51.912;15.570;2023-03-17T11:49:35;101565.25;;;14.66;34.54
76331;BME280;65148;51.912;15.570;2023-03-17T12:04:51;101549.78;;;15.31;32.93
76331;BME280;65148;51.912;15.570;2023-03-17T12:20:02;101532.21;;;15.97;32.30
76331;BME280;65148;51.912;15.570;2023-03-17T12:35:27;101526.83;;;16.05;30.14
76331;BME280;65148;51.912;15.570;2023-03-17T13:05:46;101506.48;;;16.06;30.62
76331;BME280;65148;51.912;15.570;2023-03-17T13:21:09;101509.52;;;15.91;28.74
76331;BME280;65148;51.912;15.570;2023-03-17T13:51:29;101455.01;;;15.85;26.88
76331;BME280;65148;51.912;15.570;2023-03-17T14:06:36;101449.40;;;15.62;28.64
76331;BME280;65148;51.912;15.570;2023-03-17T14:21:38;101436.41;;;15.68;29.97
76331;BME280;65148;51.912;15.570;2023-03-17T14:36:40;101426.21;;;15.55;29.98
76331;BME280;65148;51.912;15.570;2023-03-17T14:51:57;101420.10;;;15.25;31.22
76331;BME280;65148;51.912;15.570;2023-03-17T15:07:04;101404.23;;;15.09;30.12
76331;BME280;65148;51.912;15.570;2023-03-17T15:37:38;101380.55;;;14.48;30.31
76331;BME280;65148;51.912;15.570;2023-03-17T15:52:39;101380.03;;;14.97;32.00
76331;BME280;65148;51.912;15.570;2023-03-17T16:07:40;101366.65;;;14.77;34.56
76331;BME280;65148;51.912;15.570;2023-03-17T16:22:42;101360.80;;;14.08;36.20
76331;BME280;65148;51.912;15.570;2023-03-17T16:38:02;101358.58;;;13.44;37.39
76331;BME280;65148;51.912;15.570;2023-03-17T16:53:03;101351.39;;;12.95;38.22
76331;BME280;65148;51.912;15.570;2023-03-17T17:08:05;101349.43;;;12.67;39.57
76331;BME280;65148;51.912;15.570;2023-03-17T17:23:10;101335.88;;;12.13;41.11
76331;BME280;65148;51.912;15.570;2023-03-17T17:38:29;101346.47;;;11.65;42.19
76331;BME280;65148;51.912;15.570;2023-03-17T17:53:31;101350.63;;;11.42;43.11
76331;BME280;65148;51.912;15.570;2023-03-17T18:08:32;101355.63;;;11.00;44.42
76331;BME280;65148;51.912;15.570;2023-03-17T18:23:34;101359.18;;;10.70;44.13
76331;BME280;65148;51.912;15.570;2023-03-17T18:38:56;101362.68;;;10.40;43.57
76331;BME280;65148;51.912;15.570;2023-03-17T18:53:57;101352.05;;;10.33;44.09
76331;BME280;65148;51.912;15.570;2023-03-17T19:09:00;101352.55;;;10.15;45.21
76331;BME280;65148;51.912;15.570;2023-03-17T19:24:02;101338.49;;;9.66;46.37
76331;BME280;65148;51.912;15.570;2023-03-17T19:39:23;101326.86;;;9.18;48.23
76331;BME280;65148;51.912;15.570;2023-03-17T19:54:24;101322.59;;;8.90;49.16
76331;BME280;65148;51.912;15.570;2023-03-17T20:09:25;101318.91;;;8.37;51.41
76331;BME280;65148;51.912;15.570;2023-03-17T20:24:27;101314.34;;;7.89;53.51
76331;BME280;65148;51.912;15.570;2023-03-17T20:39:49;101294.74;;;7.39;54.74
76331;BME280;65148;51.912;15.570;2023-03-17T20:54:54;101298.84;;;7.19;54.86
76331;BME280;65148;51.912;15.570;2023-03-17T21:09:55;101284.12;;;6.93;55.65
76331;BME280;65148;51.912;15.570;2023-03-17T21:24:56;101281.27;;;6.83;56.03
76331;BME280;65148;51.912;15.570;2023-03-17T21:40:17;101285.80;;;6.61;57.48
76331;BME280;65148;51.912;15.570;2023-03-17T21:55:19;101293.01;;;6.39;59.76
76331;BME280;65148;51.912;15.570;2023-03-17T22:10:20;101288.80;;;5.86;61.86
76331;BME280;65148;51.912;15.570;2023-03-17T22:25:22;101288.88;;;5.23;64.03
76331;BME280;65148;51.912;15.570;2023-03-17T22:40:45;101283.27;;;4.66;66.50
76331;BME280;65148;51.912;15.570;2023-03-17T22:55:47;101276.58;;;4.45;67.35
76331;BME280;65148;51.912;15.570;2023-03-17T23:10:49;101297.73;;;4.07;69.96
76331;BME280;65148;51.912;15.570;2023-03-17T23:25:50;101301.60;;;3.81;71.29
76331;BME280;65148;51.912;15.570;2023-03-17T23:41:15;101270.92;;;3.52;72.71
76331;BME280;65148;51.912;15.570;2023-03-17T23:56:18;101279.85;;;3.34;73.24
